Time;durP1;ratioP1;P1;durP2;ratioP2;P2;SDS_P1;SDS_P2;PMS_P1;PMS_P2;Temp;Humidity;BMP_temperature;BMP_pressure;BME280_temperature;BME280_humidity;BME280_pressure;Samples;Min_cycle;Max_cycle;Signal;HPM_P1;HPM_P2
2023/08/10 00:00:46;;;;;;;5.03;4.00;;;;;;;;;;4965424;29;20452;-91
2023/08/10 00:03:14;;;;;;;5.10;3.93;;;14.60;99.90;;;;;;4963709;29;20554;-91
2023/08/10 00:05:43;;;;;;;8.30;4.77;;;;;;;;;;4964593;29;20457;-91
2023/08/10 00:08:11;;;;;;;7.40;3.90;;;;;;;;;;4963775;29;20469;-91
2023/08/10 00:10:39;;;;;;;4.40;3.23;;;;;;;;;;4971520;28;20446;-92
2023/08/10 00:13:08;;;;;;;4.90;3.90;;;;;;;;;;4963856;29;20458;-92
2023/08/10 00:15:36;;;;;;;9.50;7.00;;;;;;;;;;4964032;29;20501;-93
2023/08/10 00:18:06;;;;;;;9.90;4.43;;;;;;;;;;4964014;29;20454;-92
2023/08/10 00:20:34;;;;;;;5.60;3.67;;;;;;;;;;4964570;29;20473;-91
2023/08/10 00:23:01;;;;;;;5.73;4.20;;;;;;;;;;4962710;29;20482;-92
2023/08/10 00:25:29;;;;;;;5.67;4.30;;;;;;;;;;4963267;29;20442;-92
2023/08/10 00:27:57;;;;;;;4.20;3.50;;;;;;;;;;4971044;28;20457;-90
2023/08/10 00:30:24;;;;;;;9.53;4.40;;;;;;;;;;4980092;28;20443;-91
2023/08/10 00:32:51;;;;;;;4.17;3.77;;;;;;;;;;4980067;28;20462;-91
2023/08/10 00:35:20;;;;;;;7.20;3.70;;;;;;;;;;4979885;28;20466;-91
2023/08/10 00:37:49;;;;;;;4.00;3.60;;;;;;;;;;4979997;28;20438;-91
2023/08/10 00:40:16;;;;;;;5.10;3.90;;;;;;;;;;4979806;28;20469;-91
2023/08/10 00:42:43;;;;;;;6.23;3.87;;;;;;;;;;4981763;28;20459;-91
2023/08/10 00:45:11;;;;;;;5.70;4.07;;;14.50;99.90;;;;;;4983013;28;20454;-92
2023/08/10 00:47:38;;;;;;;3.77;3.37;;;;;;;;;;4974315;29;20517;-91
2023/08/10 00:50:06;;;;;;;5.77;3.50;;;14.40;99.90;;;;;;4969568;29;20459;-92
2023/08/10 00:52:36;;;;;;;3.87;3.30;;;14.40;1.00;;;;;;4968007;29;20474;-91
2023/08/10 00:55:03;;;;;;;7.67;4.10;;;;;;;;;;4965774;29;20462;-91
2023/08/10 00:57:31;;;;;;;5.70;3.60;;;;;;;;;;4966579;29;20447;-91
2023/08/10 00:59:58;;;;;;;5.23;4.23;;;;;;;;;;4965639;29;20454;-92
2023/08/10 01:02:26;;;;;;;7.40;3.67;;;;;;;;;;4965099;29;20518;-91
2023/08/10 01:04:56;;;;;;;5.03;3.80;;;;;;;;;;4967642;29;20508;-92
2023/08/10 01:07:40;;;;;;;6.07;3.33;;;14.30;1.00;;;;;;4973453;29;20466;-91
2023/08/10 01:10:18;;;;;;;4.93;3.53;;;14.20;99.90;;;;;;4980950;28;20430;-90
2023/08/10 01:12:52;;;;;;;5.93;3.80;;;14.20;99.90;;;;;;4974473;28;20477;-91
2023/08/10 01:15:30;;;;;;;5.10;4.03;;;14.20;99.90;;;;;;4966312;29;20501;-91
2023/08/10 01:17:59;;;;;;;4.57;3.80;;;14.00;1.00;;;;;;4965120;29;20485;-91
2023/08/10 01:20:27;;;;;;;6.93;4.30;;;;;;;;;;4975143;28;20455;-91
2023/08/10 01:26:05;;;;;;;5.37;3.40;;;;;;;;;;4975169;29;20426;-91
2023/08/10 01:28:33;;;;;;;5.33;3.80;;;;;;;;;;4963683;29;20939;-91
2023/08/10 01:31:01;;;;;;;8.43;3.73;;;;;;;;;;4965784;29;20434;-91
2023/08/10 01:33:30;;;;;;;5.77;4.30;;;14.10;99.90;;;;;;4980372;28;20462;-91
2023/08/10 01:35:58;;;;;;;5.20;3.73;;;;;;;;;;4976628;29;20439;-91
2023/08/10 01:38:25;;;;;;;3.90;3.37;;;;;;;;;;4975648;29;20454;-91
2023/08/10 01:40:54;;;;;;;3.80;3.40;;;;;;;;;;4970917;29;20494;-92
2023/08/10 01:43:21;;;;;;;5.10;3.90;;;;;;;;;;4978968;28;20545;-91
2023/08/10 01:45:52;;;;;;;3.83;3.13;;;14.20;1.00;;;;;;4980842;29;20473;-91
2023/08/10 01:48:22;;;;;;;4.20;3.80;;;13.80;99.90;;;;;;4980104;28;20457;-91
2023/08/10 01:50:55;;;;;;;5.60;3.83;;;13.90;99.90;;;;;;4975578;28;20494;-91
2023/08/10 01:53:28;;;;;;;6.37;3.73;;;13.70;1.00;;;;;;4968252;28;21011;-91
2023/08/10 01:55:57;;;;;;;4.30;3.87;;;13.80;1.00;;;;;;4968188;29;20466;-90
2023/08/10 01:58:24;;;;;;;6.20;4.00;;;;;;;;;;4981644;28;20442;-90
2023/08/10 02:00:52;;;;;;;4.70;3.93;;;;;;;;;;4979225;28;20480;-91
2023/08/10 02:03:19;;;;;;;4.37;3.77;;;;;;;;;;4982160;28;20517;-91
2023/08/10 02:05:47;;;;;;;6.43;3.53;;;;;;;;;;4974839;28;20458;-91
2023/08/10 02:08:14;;;;;;;3.70;3.40;;;;;;;;;;4968983;29;20458;-91
2023/08/10 02:10:44;;;;;;;4.13;3.10;;;13.90;99.90;;;;;;4965878;29;20469;-91
2023/08/10 02:13:13;;;;;;;3.57;3.27;;;;;;;;;;4964548;29;20482;-91
2023/08/10 02:15:42;;;;;;;4.17;3.73;;;;;;;;;;4967725;29;20524;-92
2023/08/10 02:18:09;;;;;;;5.10;3.63;;;;;;;;;;4970956;28;20462;-91
2023/08/10 02:20:37;;;;;;;4.10;3.80;;;;;;;;;;4971225;29;20427;-91
2023/08/10 02:23:05;;;;;;;16.97;3.43;;;;;;;;;;4964771;28;20595;-91
2023/08/10 02:25:33;;;;;;;4.47;3.40;;;;;;;;;;4965698;29;20486;-91
2023/08/10 02:28:00;;;;;;;9.63;4.10;;;;;;;;;;4970870;28;20501;-91
2023/08/10 02:30:29;;;;;;;3.67;3.10;;;13.90;99.90;;;;;;4964459;29;20450;-91
2023/08/10 02:32:56;;;;;;;6.23;3.33;;;;;;;;;;4969320;29;20477;-91
2023/08/10 02:35:24;;;;;;;5.20;3.10;;;;;;;;;;4981238;28;20449;-93
2023/08/10 02:37:51;;;;;;;6.87;4.00;;;;;;;;;;4981583;28;20462;-92
2023/08/10 02:40:19;;;;;;;5.77;3.90;;;;;;;;;;4981455;28;20434;-92
2023/08/10 02:42:47;;;;;;;9.20;4.87;;;;;;;;;;4973938;29;20548;-91
2023/08/10 02:45:14;;;;;;;5.83;4.97;;;;;;;;;;4969258;29;20517;-91
2023/08/10 02:47:43;;;;;;;6.27;4.27;;;;;;;;;;4967152;29;20917;-90
2023/08/10 02:50:12;;;;;;;6.40;4.90;;;;;;;;;;4964679;29;20465;-90
2023/08/10 02:52:40;;;;;;;6.10;3.40;;;;;;;;;;4966628;29;20898;-91
2023/08/10 02:55:10;;;;;;;8.47;3.90;;;13.20;1.00;;;;;;4967186;29;21034;-91
2023/08/10 02:57:37;;;;;;;5.10;4.00;;;;;;;;;;4966817;29;20417;-91
2023/08/10 03:00:07;;;;;;;6.23;3.87;;;13.70;1.00;;;;;;4975641;29;20393;-91
2023/08/10 03:02:34;;;;;;;9.00;4.17;;;13.40;99.90;;;;;;5097638;23;20573;-91
2023/08/10 03:05:04;;;;;;;8.07;3.73;;;;;;;;;;5020903;23;20502;-91
2023/08/10 03:07:31;;;;;;;5.00;3.80;;;13.40;1.00;;;;;;4969228;29;20442;-92
2023/08/10 03:09:58;;;;;;;6.60;4.13;;;;;;;;;;4964375;29;20442;-91
2023/08/10 03:12:26;;;;;;;7.90;4.13;;;;;;;;;;4964794;29;20487;-91
2023/08/10 03:14:53;;;;;;;4.13;3.40;;;;;;;;;;4965360;29;20473;-91
2023/08/10 03:17:21;;;;;;;5.40;4.43;;;;;;;;;;4965289;29;20798;-90
2023/08/10 03:19:50;;;;;;;5.07;4.57;;;;;;;;;;4976356;23;20510;-92
2023/08/10 03:22:19;;;;;;;3.80;3.50;;;;;;;;;;4959011;29;20488;-92
2023/08/10 03:24:48;;;;;;;5.47;4.03;;;;;;;;;;4958642;29;20482;-92
2023/08/10 03:27:16;;;;;;;5.30;4.50;;;;;;;;;;4958472;29;20434;-91
2023/08/10 03:29:43;;;;;;;3.80;3.50;;;;;;;;;;4958469;29;20474;-92
2023/08/10 03:32:10;;;;;;;4.50;3.57;;;;;;;;;;4957722;29;20458;-92
2023/08/10 03:34:38;;;;;;;3.77;3.47;;;;;;;;;;4957159;29;20450;-92
2023/08/10 03:37:05;;;;;;;7.40;3.83;;;;;;;;;;4957061;29;20457;-92
2023/08/10 03:39:38;;;;;;;5.10;3.70;;;;;;;;;;4956657;29;20878;-92
2023/08/10 03:42:06;;;;;;;4.50;3.60;;;;;;;;;;4956622;29;20462;-91
2023/08/10 03:44:33;;;;;;;5.67;3.30;;;;;;;;;;4956101;29;20513;-91
2023/08/10 03:47:00;;;;;;;4.30;3.30;;;;;;;;;;4956493;29;20429;-91
2023/08/10 03:49:27;;;;;;;7.30;4.73;;;;;;;;;;4956754;29;20561;-91
2023/08/10 03:51:54;;;;;;;4.13;3.70;;;13.10;99.90;;;;;;4967117;29;20483;-91
2023/08/10 03:54:21;;;;;;;3.80;3.27;;;;;;;;;;4977673;28;20442;-89
2023/08/10 03:56:50;;;;;;;3.97;3.57;;;;;;;;;;4980185;28;20438;-88
2023/08/10 03:59:17;;;;;;;4.27;2.90;;;;;;;;;;4976082;28;20994;-90
2023/08/10 04:01:45;;;;;;;4.43;3.57;;;;;;;;;;4980004;28;20489;-90
2023/08/10 04:04:12;;;;;;;5.10;3.40;;;;;;;;;;4979951;28;20498;-90
2023/08/10 04:06:43;;;;;;;10.13;4.07;;;;;;;;;;4979275;28;20476;-90
2023/08/10 04:09:10;;;;;;;7.67;3.60;;;;;;;;;;4979729;28;20420;-90
2023/08/10 04:11:44;;;;;;;5.50;4.10;;;;;;;;;;4980004;28;20432;-90
2023/08/10 04:14:13;;;;;;;6.60;3.80;;;;;;;;;;4979576;28;20474;-90
2023/08/10 04:16:52;;;;;;;9.60;3.23;;;;;;;;;;4980000;28;20425;-91
2023/08/10 04:19:23;;;;;;;7.07;3.77;;;;;;;;;;4977718;28;20481;-90
2023/08/10 04:21:51;;;;;;;4.27;3.87;;;;;;;;;;4961631;29;20489;-91
2023/08/10 04:24:19;;;;;;;6.10;3.50;;;;;;;;;;4966467;29;20477;-91
2023/08/10 04:26:46;;;;;;;5.50;3.20;;;;;;;;;;4966944;28;20843;-91
2023/08/10 04:29:17;;;;;;;5.30;3.47;;;;;;;;;;4960637;29;20576;-91
2023/08/10 04:34:27;;;;;;;13.93;4.50;;;;;;;;;;4977881;28;20513;-90
2023/08/10 04:36:55;;;;;;;9.93;4.13;;;;;;;;;;4983097;28;20431;-90
2023/08/10 04:39:22;;;;;;;4.60;2.97;;;;;;;;;;4983153;28;20497;-90
2023/08/10 04:41:56;;;;;;;3.40;3.10;;;;;;;;;;4980812;28;20474;-91
2023/08/10 04:44:24;;;;;;;4.47;3.00;;;;;;;;;;4963362;29;20430;-91
2023/08/10 04:46:53;;;;;;;6.53;3.53;;;;;;;;;;4961416;29;20888;-91
2023/08/10 04:49:20;;;;;;;7.50;3.33;;;;;;;;;;4961733;29;20482;-91
2023/08/10 04:51:47;;;;;;;7.33;3.57;;;;;;;;;;4963088;29;20454;-91
2023/08/10 04:54:15;;;;;;;4.00;2.77;;;;;;;;;;4962461;29;20446;-91
2023/08/10 04:59:51;;;;;;;10.70;3.90;;;;;;;;;;4972620;28;20497;-91
2023/08/10 05:02:40;;;;;;;3.67;2.70;;;;;;;;;;4968854;29;20497;-90
2023/08/10 05:05:18;;;;;;;;;;;;;;;;;;;;;
2023/08/10 05:07:50;;;;;;;5.73;2.80;;;;;;;;;;4962799;29;20518;-90
2023/08/10 05:10:18;;;;;;;3.50;3.00;;;;;;;;;;4962210;29;20906;-91
2023/08/10 05:12:49;;;;;;;5.13;2.50;;;;;;;;;;4961397;29;20453;-91
2023/08/10 05:15:19;;;;;;;10.27;3.10;;;;;;;;;;4961522;29;20434;-91
2023/08/10 05:17:46;;;;;;;4.07;3.47;;;;;;;;;;4961732;29;20431;-89
2023/08/10 05:20:14;;;;;;;4.80;3.00;;;;;;;;;;4959880;29;21028;-88
2023/08/10 05:22:44;;;;;;;5.53;2.97;;;;;;;;;;4960580;29;20496;-88
2023/08/10 05:25:11;;;;;;;2.83;2.00;;;;;;;;;;4960464;29;20825;-88
2023/08/10 05:27:39;;;;;;;6.03;2.60;;;;;;;;;;4959149;28;20537;-88
2023/08/10 05:30:11;;;;;;;6.97;3.50;;;15.10;99.90;;;;;;4960102;29;20454;-88
2023/08/10 05:32:40;;;;;;;5.40;2.80;;;;;;;;;;4959761;29;20458;-89
2023/08/10 05:35:08;;;;;;;11.27;3.70;;;15.30;4.30;;;;;;4964602;29;20439;-88
2023/08/10 05:37:36;;;;;;;2.63;2.43;;;14.80;99.90;;;;;;4959029;29;20456;-87
2023/08/10 05:40:07;;;;;;;4.40;2.60;;;;;;;;;;4958282;29;20541;-88
2023/08/10 05:42:37;;;;;;;3.43;2.33;;;;;;;;;;4958479;29;20474;-88
2023/08/10 05:45:06;;;;;;;5.27;2.20;;;;;;;;;;4959989;29;20467;-91
2023/08/10 05:47:33;;;;;;;2.67;1.80;;;;;;;;;;4959301;29;20487;-91
2023/08/10 05:50:32;;;;;;;4.77;2.73;;;15.50;1.00;;;;;;4959626;29;20525;-92
2023/08/10 05:52:59;;;;;;;6.30;2.40;;;;;;;;;;4900734;29;20441;-91
2023/08/10 05:55:28;;;;;;;2.60;2.27;;;;;;;;;;4959942;28;20490;-89
2023/08/10 05:57:57;;;;;;;9.70;3.07;;;;;;;;;;4981073;28;20426;-89
2023/08/10 06:00:26;;;;;;;7.33;2.67;;;;;;;;;;4972297;29;20438;-90
2023/08/10 06:02:56;;;;;;;5.73;2.53;;;;;;;;;;4967612;29;20478;-90
2023/08/10 06:05:27;;;;;;;6.40;2.03;;;;;;;;;;4964562;29;20446;-90
2023/08/10 06:08:06;;;;;;;6.87;2.13;;;;;;;;;;4977893;28;21026;-90
2023/08/10 06:10:35;;;;;;;4.60;2.27;;;;;;;;;;4979416;28;20454;-90
2023/08/10 06:13:07;;;;;;;4.50;2.17;;;;;;;;;;4980630;28;20483;-89
2023/08/10 06:15:39;;;;;;;5.20;2.23;;;;;;;;;;4980540;28;20450;-90
2023/08/10 06:18:09;;;;;;;8.37;3.03;;;;;;;;;;4969043;28;20986;-90
2023/08/10 06:20:44;;;;;;;4.80;2.50;;;;;;;;;;4972292;28;20454;-90
2023/08/10 06:23:17;;;;;;;5.33;2.57;;;;;;;;;;4967457;29;20470;-90
2023/08/10 06:26:01;;;;;;;7.30;2.80;;;15.80;1.00;;;;;;4960698;29;20450;-90
2023/08/10 06:28:40;;;;;;;;;;;;;;;;;;;;;
2023/08/10 06:31:20;;;;;;;6.60;3.07;;;;;;;;;;4954104;29;20822;-90
2023/08/10 06:36:45;;;;;;;7.80;2.57;;;;;;;;;;4959879;29;20522;-90
2023/08/10 06:39:24;;;;;;;3.73;2.47;;;;;;;;;;5070456;23;20848;-90
2023/08/10 06:42:08;;;;;;;4.07;2.67;;;;;;;;;;4970292;28;20449;-90
2023/08/10 06:44:36;;;;;;;4.97;3.10;;;;;;;;;;4980863;28;20457;-89
2023/08/10 06:47:07;;;;;;;7.50;2.30;;;;;;;;;;4978401;28;20584;-90
2023/08/10 06:49:38;;;;;;;8.20;2.90;;;;;;;;;;4960497;29;20522;-90
2023/08/10 06:52:07;;;;;;;11.53;3.87;;;;;;;;;;5031136;23;20553;-87
2023/08/10 06:54:35;;;;;;;12.83;2.30;;;;;;;;;;4975637;29;20433;-89
2023/08/10 06:57:03;;;;;;;11.97;2.03;;;;;;;;;;4969877;29;20498;-88
2023/08/10 06:59:32;;;;;;;8.83;2.33;;;;;;;;;;4965940;29;20466;-90
2023/08/10 07:01:59;;;;;;;4.20;2.13;;;;;;;;;;4979222;28;20471;-90
2023/08/10 07:04:26;;;;;;;5.30;2.10;;;;;;;;;;4967283;29;20470;-89
2023/08/10 07:06:54;;;;;;;8.40;2.17;;;16.90;99.90;;;;;;4965744;29;20999;-89
2023/08/10 07:09:22;;;;;;;5.50;1.87;;;;;;;;;;4963914;29;20455;-89
2023/08/10 07:11:51;;;;;;;5.53;2.20;;;16.60;1.00;;;;;;4964323;29;20448;-89
2023/08/10 07:14:18;;;;;;;5.10;2.23;;;16.80;99.90;;;;;;4964583;29;20466;-89
2023/08/10 07:16:45;;;;;;;4.47;2.00;;;16.70;99.90;;;;;;4963438;29;20454;-89
2023/08/10 07:19:12;;;;;;;6.43;1.80;;;15.90;99.90;;;;;;4962916;29;20456;-89
2023/08/10 07:21:39;;;;;;;5.53;2.10;;;16.80;99.90;;;;;;4961702;29;20482;-89
2023/08/10 07:24:07;;;;;;;4.40;1.63;;;;;;;;;;4961434;29;20533;-89
2023/08/10 07:26:34;;;;;;;5.17;1.77;;;16.50;1.00;;;;;;4964646;29;20511;-89
2023/08/10 07:29:03;;;;;;;2.60;1.70;;;16.50;1.00;;;;;;4962303;29;20476;-89
2023/08/10 07:31:32;;;;;;;9.23;3.83;;;16.50;1.00;;;;;;4963372;29;20531;-90
2023/08/10 07:33:59;;;;;;;5.93;1.50;;;16.60;99.90;;;;;;4966664;29;20515;-91
2023/08/10 07:36:26;;;;;;;3.90;1.73;;;;;;;;;;4963221;29;20819;-90
2023/08/10 07:38:55;;;;;;;4.93;2.40;;;;;;;;;;4964052;29;20451;-90
2023/08/10 07:41:23;;;;;;;6.53;2.07;;;;;;;;;;4961619;29;20464;-89
2023/08/10 07:43:50;;;;;;;5.30;2.10;;;16.60;1.00;;;;;;4960932;29;20548;-90
2023/08/10 07:46:18;;;;;;;5.73;2.13;;;17.00;99.90;;;;;;4961482;29;20451;-89
2023/08/10 07:48:46;;;;;;;4.33;1.50;;;;;;;;;;4961588;29;20477;-89
2023/08/10 07:51:13;;;;;;;3.03;1.70;;;16.80;1.00;;;;;;4962232;28;20971;-90
2023/08/10 07:53:40;;;;;;;7.60;2.27;;;17.20;99.90;;;;;;4965924;28;20496;-90
2023/08/10 07:56:07;;;;;;;3.17;1.83;;;;;;;;;;4965554;29;20451;-89
2023/08/10 07:58:34;;;;;;;3.73;1.70;;;16.90;99.90;;;;;;4969698;29;20495;-90
2023/08/10 08:01:01;;;;;;;3.23;1.97;;;16.60;99.90;;;;;;4977418;28;20531;-89
2023/08/10 08:03:30;;;;;;;9.10;1.90;;;;;;;;;;4980042;28;20488;-89
2023/08/10 08:05:58;;;;;;;5.93;1.73;;;17.20;1.00;;;;;;4978819;28;20406;-90
2023/08/10 08:08:25;;;;;;;4.10;2.20;;;17.20;1.00;;;;;;4972900;29;20500;-90
2023/08/10 08:10:52;;;;;;;5.13;2.73;;;;;;;;;;4980194;28;20507;-89
2023/08/10 08:13:19;;;;;;;4.83;2.33;;;17.20;99.90;;;;;;4980018;28;20505;-89
2023/08/10 08:15:47;;;;;;;4.73;2.30;;;;;;;;;;4979943;28;20437;-90
2023/08/10 08:18:44;;;;;;;6.67;1.97;;;17.40;1.00;;;;;;4980283;28;20442;-89
2023/08/10 08:21:12;;;;;;;5.13;1.97;;;;;;;;;;4963489;28;20418;-89
2023/08/10 08:23:39;;;;;;;3.47;1.60;;;17.30;1.00;;;;;;4978584;28;20527;-89
2023/08/10 08:26:06;;;;;;;3.73;2.27;;;;;;;;;;4979709;28;20451;-89
2023/08/10 08:28:33;;;;;;;5.87;1.70;;;;;;;;;;4979813;28;20430;-89
2023/08/10 08:31:01;;;;;;;3.00;1.60;;;;;;;;;;4976770;28;20479;-90
2023/08/10 08:33:31;;;;;;;3.00;1.70;;;17.30;1.00;;;;;;4973464;28;20483;-90
2023/08/10 08:36:00;;;;;;;4.50;2.50;;;17.50;1.00;;;;;;4969183;29;20433;-90
2023/08/10 08:38:29;;;;;;;2.23;1.63;;;;;;;;;;4963010;29;20446;-90
2023/08/10 08:40:57;;;;;;;5.07;2.50;;;17.70;99.90;;;;;;4962123;29;20510;-90
2023/08/10 08:43:24;;;;;;;4.83;1.73;;;17.30;99.90;;;;;;4960752;29;20488;-91
2023/08/10 08:45:52;;;;;;;3.80;1.77;;;17.70;1.00;;;;;;4944501;29;20464;-91
2023/08/10 08:48:20;;;;;;;1.80;1.40;;;;;;;;;;4961421;29;20445;-91
2023/08/10 08:50:47;;;;;;;4.00;1.57;;;17.90;1.00;;;;;;4964252;29;20449;-90
2023/08/10 08:53:16;;;;;;;6.70;2.10;;;17.90;1.00;;;;;;4974394;28;20487;-90
2023/08/10 08:55:46;;;;;;;2.13;1.33;;;;;;;;;;4963037;29;20477;-90
2023/08/10 08:58:14;;;;;;;3.47;1.57;;;;;;;;;;4970382;28;20441;-91
2023/08/10 09:00:42;;;;;;;2.57;1.60;;;;;;;;;;4969319;29;20477;-90
2023/08/10 09:03:09;;;;;;;3.73;1.70;;;;;;;;;;4962661;28;20488;-90
2023/08/10 09:05:37;;;;;;;3.50;2.03;;;;;;;;;;4965089;29;20962;-90
2023/08/10 09:08:05;;;;;;;5.80;1.50;;;18.20;1.00;;;;;;4965049;29;20480;-90
2023/08/10 09:10:34;;;;;;;2.07;1.53;;;18.20;1.00;;;;;;4966008;29;20488;-90
2023/08/10 09:13:11;;;;;;;1.70;1.40;;;;;;;;;;4981517;28;20473;-90
2023/08/10 09:15:40;;;;;;;3.87;2.00;;;;;;;;;;4982469;28;20414;-89
2023/08/10 09:18:07;;;;;;;2.50;1.67;;;;;;;;;;4968156;29;20457;-90
2023/08/10 09:20:35;;;;;;;4.30;1.67;;;18.40;1.00;;;;;;4968799;29;20474;-90
2023/08/10 09:23:02;;;;;;;5.30;2.23;;;;;;;;;;4966355;29;20545;-90
2023/08/10 09:25:37;;;;;;;5.40;1.47;;;;;;;;;;4966912;29;20453;-91
2023/08/10 09:28:08;;;;;;;5.10;2.00;;;;;;;;;;4979520;28;20453;-89
2023/08/10 09:30:36;;;;;;;5.27;1.60;;;;;;;;;;4979501;28;20442;-89
2023/08/10 09:33:03;;;;;;;4.40;2.70;;;18.10;99.90;;;;;;4974670;29;20477;-89
2023/08/10 09:35:32;;;;;;;2.47;1.40;;;18.40;1.00;;;;;;4972022;29;20472;-90
2023/08/10 09:38:03;;;;;;;6.70;1.90;;;18.50;1.00;;;;;;4980090;29;20442;-90
2023/08/10 09:40:31;;;;;;;4.73;1.60;;;;;;;;;;4981490;28;20429;-91
2023/08/10 09:43:02;;;;;;;6.23;2.03;;;18.20;99.90;;;;;;4972584;29;20502;-91
2023/08/10 09:45:29;;;;;;;4.60;1.50;;;;;;;;;;4968807;29;20522;-90
2023/08/10 09:47:56;;;;;;;3.30;1.83;;;;;;;;;;4966387;29;20485;-90
2023/08/10 09:50:23;;;;;;;3.93;1.70;;;;;;;;;;4969592;29;20473;-90
2023/08/10 09:52:52;;;;;;;3.33;1.97;;;18.50;1.00;;;;;;4971605;28;20495;-90
2023/08/10 09:55:19;;;;;;;3.50;1.77;;;;;;;;;;4970273;29;20464;-90
2023/08/10 09:57:47;;;;;;;4.07;2.27;;;18.70;1.00;;;;;;4965969;29;20521;-90
2023/08/10 10:00:19;;;;;;;3.40;1.83;;;18.80;99.90;;;;;;4965575;29;20521;-91
2023/08/10 10:02:46;;;;;;;4.50;1.80;;;;;;;;;;4966507;29;20470;-91
2023/08/10 10:05:14;;;;;;;4.13;1.77;;;;;;;;;;4964964;29;20510;-91
2023/08/10 10:07:42;;;;;;;3.70;1.70;;;19.10;99.90;;;;;;4970003;29;20447;-91
2023/08/10 10:10:13;;;;;;;2.60;1.40;;;19.20;1.00;;;;;;4971909;29;20474;-91
2023/08/10 10:12:41;;;;;;;4.00;1.40;;;19.20;1.00;;;;;;4981651;28;20489;-89
2023/08/10 10:15:10;;;;;;;3.23;1.43;;;18.50;99.90;;;;;;4973273;28;20446;-91
2023/08/10 10:17:40;;;;;;;2.10;1.90;;;18.70;1.00;;;;;;4965630;29;20541;-91
2023/08/10 10:20:11;;;;;;;3.47;2.10;;;18.70;1.00;;;;;;4968256;29;20434;-90
2023/08/10 10:22:39;;;;;;;4.10;1.40;;;18.60;1.00;;;;;;4967664;29;20921;-90
2023/08/10 10:25:14;;;;;;;3.93;1.80;;;18.70;99.90;;;;;;4964192;29;20485;-91
2023/08/10 10:27:41;;;;;;;2.30;2.00;;;18.50;99.90;;;;;;4963641;29;20446;-89
2023/08/10 10:30:16;;;;;;;3.10;2.40;;;19.10;1.00;;;;;;4964268;29;20438;-91
2023/08/10 10:32:50;;;;;;;1.93;1.73;;;18.90;99.90;;;;;;4965185;29;20493;-90
2023/08/10 10:35:21;;;;;;;4.73;1.57;;;19.20;1.00;;;;;;4963908;29;20466;-90
2023/08/10 10:37:55;;;;;;;2.03;1.67;;;19.60;1.00;;;;;;4964252;29;20502;-90
2023/08/10 10:40:24;;;;;;;3.10;2.07;;;20.00;99.90;;;;;;4963838;29;20437;-90
2023/08/10 10:43:07;;;;;;;4.30;2.17;;;19.80;1.00;;;;;;4964572;29;20974;-90
2023/08/10 10:48:35;;;;;;;2.70;1.87;;;19.60;1.00;;;;;;4972638;29;20457;-90
2023/08/10 10:51:06;;;;;;;3.00;1.50;;;19.40;1.00;;;;;;4974756;29;20427;-90
2023/08/10 10:53:35;;;;;;;7.87;1.60;;;19.20;1.00;;;;;;4974145;28;20480;-89
2023/08/10 10:56:05;;;;;;;3.47;2.17;;;19.20;1.00;;;;;;4973069;29;20438;-89
2023/08/10 10:58:33;;;;;;;4.30;2.60;;;;;;;;;;4971105;29;20443;-89
2023/08/10 11:01:00;;;;;;;8.80;2.60;;;;;;;;;;4978231;28;20450;-91
2023/08/10 11:03:31;;;;;;;7.73;4.40;;;19.20;1.00;;;;;;4979961;28;20458;-89
2023/08/10 11:05:58;;;;;;;2.73;1.60;;;;;;;;;;4970948;28;20541;-90
2023/08/10 11:08:26;;;;;;;3.73;2.00;;;;;;;;;;4966896;29;20450;-92
2023/08/10 11:10:55;;;;;;;5.97;1.87;;;19.20;99.90;;;;;;4964918;29;20457;-89
2023/08/10 11:13:26;;;;;;;5.20;1.60;;;;;;;;;;4966222;29;20465;-90
2023/08/10 11:15:53;;;;;;;4.83;1.70;;;;;;;;;;4974552;28;20557;-90
2023/08/10 11:18:20;;;;;;;3.63;1.90;;;;;;;;;;4966553;29;20470;-90
2023/08/10 11:20:51;;;;;;;3.20;2.00;;;19.80;99.90;;;;;;4975320;29;20454;-90
2023/08/10 11:23:19;;;;;;;2.37;1.60;;;;;;;;;;4974580;29;20470;-90
2023/08/10 11:25:49;;;;;;;3.13;2.20;;;19.80;1.00;;;;;;4976618;28;20495;-91
2023/08/10 11:28:21;;;;;;;2.47;1.97;;;20.00;1.00;;;;;;4977701;29;20449;-91
2023/08/10 11:30:49;;;;;;;2.80;2.37;;;20.20;1.00;;;;;;4975322;29;20494;-91
2023/08/10 11:33:17;;;;;;;2.00;1.73;;;;;;;;;;4974418;29;20493;-91
2023/08/10 11:35:51;;;;;;;2.23;1.80;;;20.50;1.00;;;;;;4976214;29;20482;-90
2023/08/10 11:38:19;;;;;;;3.70;1.97;;;;;;;;;;4973552;29;20426;-90
2023/08/10 11:40:47;;;;;;;9.43;2.57;;;;;;;;;;4958516;28;20481;-90
2023/08/10 11:43:28;;;;;;;3.93;2.17;;;;;;;;;;4972274;29;20467;-90
2023/08/10 11:45:56;;;;;;;2.63;2.43;;;;;;;;;;4975907;29;20438;-91
2023/08/10 11:48:26;;;;;;;5.53;2.03;;;;;;;;;;4974160;29;20442;-90
2023/08/10 11:51:01;;;;;;;2.07;1.83;;;;;;;;;;4973409;28;20411;-89
2023/08/10 11:53:39;;;;;;;3.07;2.27;;;20.90;1.00;;;;;;4973057;28;20465;-91
2023/08/10 11:56:07;;;;;;;4.30;2.00;;;;;;;;;;4980253;28;20430;-90
2023/08/10 11:58:34;;;;;;;5.90;2.50;;;;;;;;;;4980217;28;20450;-90
2023/08/10 12:01:04;;;;;;;3.33;1.70;;;20.50;1.00;;;;;;4980205;28;20454;-91
2023/08/10 12:03:32;;;;;;;4.27;2.70;;;;;;;;;;4980134;28;20465;-91
2023/08/10 12:06:15;;;;;;;1.90;1.60;;;;;;;;;;4980313;28;20455;-90
2023/08/10 12:08:43;;;;;;;9.07;1.87;;;20.20;1.00;;;;;;4980218;28;20479;-90
2023/08/10 12:11:12;;;;;;;3.87;2.20;;;19.90;1.00;;;;;;4976770;28;20427;-90
2023/08/10 12:13:45;;;;;;;2.73;1.67;;;19.80;99.90;;;;;;4974878;28;20549;-89
2023/08/10 12:16:14;;;;;;;5.57;2.30;;;;;;;;;;4974730;28;20406;-90
2023/08/10 12:18:44;;;;;;;3.40;1.53;;;;;;;;;;4980118;28;20465;-90
2023/08/10 12:21:12;;;;;;;2.53;1.80;;;;;;;;;;4977331;28;20442;-90
2023/08/10 12:23:40;;;;;;;7.60;2.60;;;;;;;;;;4972900;29;20485;-90
2023/08/10 12:26:08;;;;;;;3.20;2.37;;;;;;;;;;4971956;29;20509;-91
2023/08/10 12:28:35;;;;;;;5.10;2.77;;;;;;;;;;4970031;29;20514;-91
2023/08/10 12:31:05;;;;;;;3.07;2.13;;;19.70;99.90;;;;;;4970227;29;20466;-91
2023/08/10 12:33:33;;;;;;;3.30;2.47;;;19.70;99.90;;;;;;4965134;29;20485;-91
2023/08/10 12:35:59;;;;;;;4.43;2.10;;;19.80;99.90;;;;;;4963007;29;20443;-90
2023/08/10 12:38:29;;;;;;;1.70;1.50;;;20.10;1.00;;;;;;4964687;28;20541;-91
2023/08/10 12:40:56;;;;;;;7.60;2.47;;;;;;;;;;4966826;29;20816;-90
2023/08/10 12:43:23;;;;;;;4.37;1.87;;;;;;;;;;4971060;29;20484;-90
2023/08/10 12:45:51;;;;;;;3.30;2.83;;;;;;;;;;4967061;29;20498;-90
2023/08/10 12:48:19;;;;;;;2.73;1.80;;;;;;;;;;4967011;29;20947;-90
2023/08/10 12:50:46;;;;;;;2.53;1.67;;;;;;;;;;4975655;28;20458;-91
2023/08/10 12:53:16;;;;;;;5.10;2.40;;;;;;;;;;4977744;28;20478;-90
2023/08/10 12:55:45;;;;;;;6.30;1.97;;;;;;;;;;4974015;28;20445;-89
2023/08/10 12:58:15;;;;;;;8.57;2.60;;;;;;;;;;4968034;29;20815;-89
2023/08/10 13:00:42;;;;;;;2.97;1.63;;;;;;;;;;4969351;29;20472;-90
2023/08/10 13:03:09;;;;;;;5.77;1.83;;;;;;;;;;4975077;29;20538;-91
2023/08/10 13:05:37;;;;;;;2.50;1.70;;;;;;;;;;4975261;29;20622;-92
2023/08/10 13:08:04;;;;;;;2.83;1.70;;;;;;;;;;4976077;29;20442;-90
2023/08/10 13:10:31;;;;;;;2.17;2.00;;;;;;;;;;4977694;29;20450;-91
2023/08/10 13:13:00;;;;;;;2.70;1.97;;;;;;;;;;4978791;28;20465;-89
2023/08/10 13:15:28;;;;;;;1.90;1.67;;;;;;;;;;4982486;28;20441;-91
2023/08/10 13:17:55;;;;;;;3.83;1.90;;;;;;;;;;4971996;29;20434;-90
2023/08/10 13:20:23;;;;;;;2.60;1.77;;;;;;;;;;4970412;29;20460;-89
2023/08/10 13:22:50;;;;;;;1.90;1.50;;;;;;;;;;4969782;29;20493;-89
2023/08/10 13:25:18;;;;;;;5.40;1.83;;;20.60;99.90;;;;;;4969320;29;20490;-90
2023/08/10 13:27:45;;;;;;;2.60;1.70;;;;;;;;;;4976063;28;20446;-89
2023/08/10 13:30:14;;;;;;;2.70;1.50;;;;;;;;;;4978016;29;20454;-90
2023/08/10 13:32:42;;;;;;;3.73;1.70;;;;;;;;;;4975783;29;20880;-90
2023/08/10 13:35:10;;;;;;;3.23;2.00;;;;;;;;;;4974122;29;20438;-90
2023/08/10 13:37:38;;;;;;;4.93;1.60;;;;;;;;;;4973915;29;20480;-90
2023/08/10 13:40:08;;;;;;;3.37;1.60;;;21.50;73.50;;;;;;4977934;29;20436;-90
2023/08/10 13:42:37;;;;;;;2.07;1.60;;;;;;;;;;4979124;28;20464;-90
2023/08/10 13:45:05;;;;;;;3.23;1.70;;;21.30;67.40;;;;;;4971993;29;20477;-91
2023/08/10 13:47:35;;;;;;;7.27;2.00;;;21.10;67.70;;;;;;4971724;29;21005;-90
2023/08/10 13:50:02;;;;;;;6.00;1.80;;;;;;;;;;4973694;28;20505;-90
2023/08/10 13:52:30;;;;;;;2.80;1.43;;;;;;;;;;4970179;28;20482;-91
2023/08/10 13:54:58;;;;;;;2.73;1.67;;;20.90;99.90;;;;;;4969457;29;20431;-92
2023/08/10 13:57:25;;;;;;;3.90;1.70;;;20.70;54.50;;;;;;4967475;29;20462;-89
2023/08/10 13:59:53;;;;;;;3.63;1.70;;;;;;;;;;4972613;28;20535;-90
2023/08/10 14:02:20;;;;;;;2.63;1.60;;;;;;;;;;4982255;28;20448;-90
2023/08/10 14:04:49;;;;;;;3.50;2.10;;;;;;;;;;5038851;23;20502;-89
2023/08/10 14:07:17;;;;;;;5.13;2.10;;;;;;;;;;4977581;28;20462;-90
2023/08/10 14:09:46;;;;;;;2.00;1.50;;;;;;;;;;4976377;29;20481;-89
2023/08/10 14:12:13;;;;;;;4.30;1.80;;;;;;;;;;4970642;29;20470;-90
2023/08/10 14:14:44;;;;;;;1.90;1.70;;;;;;;;;;4977126;28;20486;-90
2023/08/10 14:17:12;;;;;;;4.20;2.10;;;;;;;;;;4969391;29;20423;-90
2023/08/10 14:19:40;;;;;;;4.33;2.10;;;;;;;;;;4971556;29;20458;-89
2023/08/10 14:22:09;;;;;;;5.07;1.60;;;;;;;;;;4981320;28;20438;-91
2023/08/10 14:24:39;;;;;;;1.93;1.73;;;;;;;;;;4974602;28;20426;-90
2023/08/10 14:27:08;;;;;;;3.73;2.67;;;;;;;;;;4972035;29;20451;-90
2023/08/10 14:29:36;;;;;;;3.83;2.20;;;;;;;;;;4969691;29;20505;-90
2023/08/10 14:32:04;;;;;;;3.23;1.80;;;;;;;;;;4970329;29;20679;-91